logo
Search for airport 
image banner adimage banner adimage banner ad
image banner ad

HLMS - Misrata International

Located in Misurata, Libyan Arab Jamahiriya

ICAO - , IATA - MRA

Data provided by Airmate  

General information

Coordinates: N32°19'31" E15°3'39"
Elevation is 35 feet MSL.
Magnetic variation is 3° East
View others Airports in Misurata District

Operational data

Special qualification required
Current time UTC:
Current local time:
Weather at : - ( 0 km )
METAR: TJIG 152045Z 08009KT 10SM SCT030 SCT070 31/23 A2995
View NOTAMs / SUP AIP / TFR affecting this airport [VIEW]
Communications frequencies: [VIEW]

Runways:

RWY identifierQFULength (ft)Width (ft)SurfaceLDA (ft)
15146°11117144ASPH
33326°11117144ASPH

Airport contact information

Address: Misurata Libyan Arab Jamahiriya

Satellite view of HLMS